Aviation Digital Data Service (ADDS)

Output produced by METARs form (1953 UTC 29 June 2016)
found at http://www.aviationweather.gov/adds/metars/
 
KJST 291916Z AUTO 25006KT 10SM FEW022 SCT027 BKN035 17/10 A3008 RMK AO2 T01720100
KJST 291854Z AUTO 29007KT 8SM BKN023 OVC030 16/09 A3008 RMK AO2 SLP182 T01560094
KJST 291754Z AUTO 30008KT 8SM SCT016 OVC021 16/10 A3008 RMK AO2 SLP181 T01560100 10156 20122 51004
KJST 291739Z AUTO 30009KT 8SM BKN017 OVC022 16/10 A3008 RMK AO2 T01560100
KJST 291724Z AUTO 30010KT 8SM BKN013 OVC022 16/10 A3007 RMK AO2 T01560100
KJST 291654Z AUTO 29010KT 6SM HZ OVC017 15/10 A3008 RMK AO2 SLP180 T01500100
KJST 291633Z AUTO 30010KT 7SM OVC015 15/10 A3008 RMK AO2 T01500100
KJST 291620Z AUTO 31008KT 7SM BKN012 OVC019 14/09 A3008 RMK AO2 T01440094
KJST 291608Z AUTO 30010KT 6SM HZ OVC018 14/09 A3008 RMK AO2 T01440094
KJST 291554Z AUTO 30009KT 7SM BKN011 OVC017 14/09 A3008 RMK AO2 SLP179 T01440094
KJST 291454Z AUTO 30007KT 10SM OVC011 13/09 A3006 RMK AO2 SLP175 T01330089 51009
KJST 291354Z AUTO 29008KT 9SM OVC011 13/09 A3006 RMK AO2 SLP173 T01330094
KJST 291254Z AUTO 31006KT 8SM OVC010 13/09 A3005 RMK AO2 SLP170 T01280089
KJST 291233Z AUTO 30007KT 9SM OVC010 13/09 A3004 RMK AO2 CIG 006V013 T01280094
KJST 291154Z AUTO VRB03KT 8SM OVC006 13/09 A3003 RMK AO2 SLP163 T01280094 10150 20122 53010
KJST 291054Z AUTO 31004KT 8SM OVC006 12/09 A3002 RMK AO2 SLP158 T01220094
KJST 290954Z AUTO 32005KT 10SM OVC006 12/09 A3001 RMK AO2 SLP152 T01220094
KJST 290854Z AUTO 29003KT 10SM OVC008 13/10 A3000 RMK AO2 CIG 006V011 SLP149 T01280100 55003
KJST 290844Z AUTO 00000KT 10SM OVC008 13/10 A3000 RMK AO2 CIG 007V011 T01280100
KJST 290832Z AUTO 29003KT 10SM BKN010 13/10 A3000 RMK AO2 T01280100
KJST 290754Z AUTO 31007KT 10SM CLR 13/09 A2999 RMK AO2 SLP146 T01280094
KJST 290712Z AUTO 30003KT 10SM FEW009 13/10 A3000 RMK AO2 T01280100
KJST 290654Z AUTO 33005KT 10SM CLR 14/10 A3000 RMK AO2 SLP148 T01390100
KJST 290554Z AUTO 32007KT 10SM CLR 14/10 A3001 RMK AO2 SLP150 T01440100 10217 20144 58002
KJST 290454Z AUTO 32004KT 10SM CLR 16/11 A3002 RMK AO2 SLP152 T01610106 402610161
KJST 290354Z AUTO 32007KT 10SM BKN042 BKN055 18/11 A3003 RMK AO2 SLP154 T01780111
KJST 290254Z AUTO 34008KT 10SM SCT040 BKN047 OVC065 18/11 A3002 RMK AO2 SLP150 T01830111 53012
KJST 290154Z AUTO 36009KT 10SM FEW042 OVC065 19/12 A3000 RMK AO2 SLP145 T01890117
KJST 290054Z AUTO 35006KT 10SM CLR 19/12 A2999 RMK AO2 SLP142 T01940122
KJST 282354Z AUTO 34009KT 10SM FEW048 FEW085 22/13 A2998 RMK AO2 SLP138 T02170128 10261 20217 53007
KJST 282254Z AUTO 32014KT 10SM FEW042 SCT050 23/13 A2997 RMK AO2 SLP133 T02280128
KJST 282154Z AUTO 28011KT 10SM FEW043 SCT065 24/12 A2996 RMK AO2 SLP131 T02390122
KJST 282054Z AUTO 29012G19KT 10SM FEW039 SCT055 25/14 A2996 RMK AO2 SLP129 T02500139 55004
KJST 281954Z AUTO 29013G20KT 10SM FEW065 25/13 A2995 RMK AO2 SLP128 T02500133
KJST 281854Z AUTO 28012G20KT 10SM FEW044 SCT060 SCT085 24/14 A2996 RMK AO2 SLP130 T02440139
KJST 281754Z AUTO 26011G19KT 10SM CLR 26/14 A2997 RMK AO2 SLP132 T02560139 10261 20194 58009
KJST 281654Z AUTO 28011G17KT 10SM FEW032 SCT039 SCT060 26/15 A2999 RMK AO2 SLP137 T02560150
KJST 281554Z AUTO VRB04KT 10SM FEW026 SCT034 BKN060 25/16 A3000 RMK AO2 SLP140 T02500156
KJST 281454Z AUTO 23007KT 10SM CLR 23/16 A3000 RMK AO2 SLP142 T02330161 58004
KJST 281354Z AUTO 24008KT 10SM FEW014 FEW075 22/17 A3001 RMK AO2 SLP146 T02220167
KJST 281254Z AUTO 24009KT 9SM FEW065 SCT100 21/17 A3002 RMK AO2 SLP151 T02060167
KJST 281154Z AUTO 23007KT 9SM CLR 19/16 A3001 RMK AO2 SLP148 T01940161 10206 20178 53002
KJST 281054Z AUTO 22006KT 10SM CLR 19/16 A3000 RMK AO2 SLP144 T01940161 $
KJST 281033Z AUTO 21006KT 6SM BR CLR 19/17 A3000 RMK AO2 T01890167 $
KJST 281014Z AUTO 20005KT 2 1/2SM BR SCT002 18/16 A3000 RMK AO2 T01830161 $
KJST 281009Z AUTO 21005KT 1SM BR VV002 18/16 A3001 RMK AO2 T01780161 $
KJST 280954Z AUTO 23006KT 1/4SM FG VV002 18/17 A3001 RMK AO2 SLP145 T01830167 $
KJST 280941Z AUTO 23006KT 3/4SM BR VV002 18/17 A3001 RMK AO2 T01830167 $
KJST 280936Z AUTO 23006KT 1 3/4SM BR BKN003 18/17 A3001 RMK AO2 T01830167 $
KJST 280932Z AUTO 23005KT 2 1/2SM BR SCT003 BKN065 18/16 A3001 RMK AO2 T01830161 $
KJST 280854Z AUTO 21007KT 10SM FEW070 19/16 A2999 RMK AO2 SLP141 T01940161 56007 $
KJST 280754Z AUTO 22007KT 9SM CLR 19/17 A3000 RMK AO2 SLP142 T01940167 $